sensor_id;sensor_type;location;lat;lon;timestamp;P1;durP1;ratioP1;P2;durP2;ratioP2
11582;SDS011;34299;50.820;4.548;2024-02-21T00:01:29;13.37;;;7.10;;
11582;SDS011;34299;50.820;4.548;2024-02-21T00:03:56;16.80;;;6.43;;
11582;SDS011;34299;50.820;4.548;2024-02-21T00:06:23;15.00;;;7.17;;
11582;SDS011;34299;50.820;4.548;2024-02-21T00:08:51;13.50;;;6.80;;
11582;SDS011;34299;50.820;4.548;2024-02-21T00:11:18;13.93;;;7.07;;
11582;SDS011;34299;50.820;4.548;2024-02-21T00:13:45;17.90;;;6.33;;
11582;SDS011;34299;50.820;4.548;2024-02-21T00:16:13;15.37;;;7.67;;
11582;SDS011;34299;50.820;4.548;2024-02-21T00:18:41;16.17;;;7.03;;
11582;SDS011;34299;50.820;4.548;2024-02-21T00:21:08;16.17;;;7.50;;
11582;SDS011;34299;50.820;4.548;2024-02-21T00:23:34;20.97;;;8.67;;
11582;SDS011;34299;50.820;4.548;2024-02-21T00:26:01;17.70;;;7.90;;
11582;SDS011;34299;50.820;4.548;2024-02-21T00:28:28;14.27;;;7.17;;
11582;SDS011;34299;50.820;4.548;2024-02-21T00:30:55;17.80;;;7.67;;
11582;SDS011;34299;50.820;4.548;2024-02-21T00:33:24;18.87;;;6.93;;
11582;SDS011;34299;50.820;4.548;2024-02-21T00:35:50;14.27;;;6.23;;
11582;SDS011;34299;50.820;4.548;2024-02-21T00:38:17;17.63;;;7.77;;
11582;SDS011;34299;50.820;4.548;2024-02-21T00:40:44;20.37;;;7.30;;
11582;SDS011;34299;50.820;4.548;2024-02-21T00:43:11;16.97;;;7.90;;
11582;SDS011;34299;50.820;4.548;2024-02-21T00:45:38;16.90;;;7.20;;
11582;SDS011;34299;50.820;4.548;2024-02-21T00:48:05;13.03;;;6.90;;
11582;SDS011;34299;50.820;4.548;2024-02-21T00:50:34;14.80;;;7.50;;
11582;SDS011;34299;50.820;4.548;2024-02-21T00:53:02;14.13;;;7.70;;
11582;SDS011;34299;50.820;4.548;2024-02-21T00:55:29;15.93;;;7.17;;
11582;SDS011;34299;50.820;4.548;2024-02-21T00:57:56;15.27;;;7.73;;
11582;SDS011;34299;50.820;4.548;2024-02-21T01:00:23;13.87;;;7.00;;
11582;SDS011;34299;50.820;4.548;2024-02-21T01:02:50;14.23;;;6.83;;
11582;SDS011;34299;50.820;4.548;2024-02-21T01:05:17;15.60;;;7.57;;
11582;SDS011;34299;50.820;4.548;2024-02-21T01:07:46;16.73;;;7.63;;
11582;SDS011;34299;50.820;4.548;2024-02-21T01:10:14;14.83;;;7.10;;
11582;SDS011;34299;50.820;4.548;2024-02-21T01:12:42;14.83;;;7.23;;
11582;SDS011;34299;50.820;4.548;2024-02-21T01:15:09;15.00;;;7.17;;
11582;SDS011;34299;50.820;4.548;2024-02-21T01:17:36;12.87;;;6.20;;
11582;SDS011;34299;50.820;4.548;2024-02-21T01:20:06;11.33;;;6.33;;
11582;SDS011;34299;50.820;4.548;2024-02-21T01:22:33;15.07;;;6.93;;
11582;SDS011;34299;50.820;4.548;2024-02-21T01:25:01;10.73;;;6.63;;
11582;SDS011;34299;50.820;4.548;2024-02-21T01:27:28;10.57;;;6.03;;
11582;SDS011;34299;50.820;4.548;2024-02-21T01:29:55;19.07;;;6.93;;
11582;SDS011;34299;50.820;4.548;2024-02-21T01:32:22;14.47;;;6.53;;
11582;SDS011;34299;50.820;4.548;2024-02-21T01:34:50;10.53;;;6.00;;
11582;SDS011;34299;50.820;4.548;2024-02-21T01:37:17;19.13;;;7.43;;
11582;SDS011;34299;50.820;4.548;2024-02-21T01:39:44;16.87;;;6.70;;
11582;SDS011;34299;50.820;4.548;2024-02-21T01:42:12;14.40;;;6.70;;
11582;SDS011;34299;50.820;4.548;2024-02-21T01:44:39;15.17;;;6.33;;
11582;SDS011;34299;50.820;4.548;2024-02-21T01:47:06;15.30;;;6.70;;
11582;SDS011;34299;50.820;4.548;2024-02-21T01:49:34;11.20;;;6.43;;
11582;SDS011;34299;50.820;4.548;2024-02-21T01:52:01;10.70;;;5.80;;
11582;SDS011;34299;50.820;4.548;2024-02-21T01:54:28;12.80;;;6.47;;
11582;SDS011;34299;50.820;4.548;2024-02-21T01:56:55;15.20;;;6.30;;
11582;SDS011;34299;50.820;4.548;2024-02-21T01:59:24;12.20;;;6.93;;
11582;SDS011;34299;50.820;4.548;2024-02-21T02:01:51;13.60;;;5.90;;
11582;SDS011;34299;50.820;4.548;2024-02-21T02:04:18;10.23;;;6.27;;
11582;SDS011;34299;50.820;4.548;2024-02-21T02:06:46;11.43;;;5.63;;
11582;SDS011;34299;50.820;4.548;2024-02-21T02:09:13;10.87;;;5.83;;
11582;SDS011;34299;50.820;4.548;2024-02-21T02:11:40;11.23;;;6.37;;
11582;SDS011;34299;50.820;4.548;2024-02-21T02:14:09;13.97;;;6.40;;
11582;SDS011;34299;50.820;4.548;2024-02-21T02:16:37;12.17;;;6.57;;
11582;SDS011;34299;50.820;4.548;2024-02-21T02:19:06;12.43;;;6.10;;
11582;SDS011;34299;50.820;4.548;2024-02-21T02:21:39;11.33;;;5.97;;
11582;SDS011;34299;50.820;4.548;2024-02-21T02:24:10;14.93;;;6.80;;
11582;SDS011;34299;50.820;4.548;2024-02-21T02:26:38;10.87;;;5.70;;
11582;SDS011;34299;50.820;4.548;2024-02-21T02:29:06;12.47;;;5.83;;
11582;SDS011;34299;50.820;4.548;2024-02-21T02:31:32;13.40;;;6.00;;
11582;SDS011;34299;50.820;4.548;2024-02-21T02:34:00;14.50;;;5.30;;
11582;SDS011;34299;50.820;4.548;2024-02-21T02:36:27;10.03;;;5.80;;
11582;SDS011;34299;50.820;4.548;2024-02-21T02:38:54;11.80;;;5.67;;
11582;SDS011;34299;50.820;4.548;2024-02-21T02:41:22;12.57;;;5.30;;
11582;SDS011;34299;50.820;4.548;2024-02-21T02:43:49;13.40;;;5.50;;
11582;SDS011;34299;50.820;4.548;2024-02-21T02:46:16;8.33;;;5.07;;
11582;SDS011;34299;50.820;4.548;2024-02-21T02:48:43;12.30;;;5.60;;
11582;SDS011;34299;50.820;4.548;2024-02-21T02:51:11;11.57;;;5.90;;
11582;SDS011;34299;50.820;4.548;2024-02-21T02:53:38;10.50;;;5.83;;
11582;SDS011;34299;50.820;4.548;2024-02-21T02:56:05;12.30;;;6.13;;
11582;SDS011;34299;50.820;4.548;2024-02-21T02:58:33;9.10;;;5.77;;
11582;SDS011;34299;50.820;4.548;2024-02-21T03:01:01;14.17;;;6.50;;
11582;SDS011;34299;50.820;4.548;2024-02-21T03:03:29;9.23;;;5.30;;
11582;SDS011;34299;50.820;4.548;2024-02-21T03:05:56;11.00;;;5.80;;
11582;SDS011;34299;50.820;4.548;2024-02-21T03:08:23;12.90;;;5.73;;
11582;SDS011;34299;50.820;4.548;2024-02-21T03:10:50;14.13;;;5.50;;
11582;SDS011;34299;50.820;4.548;2024-02-21T03:13:16;10.33;;;5.40;;
11582;SDS011;34299;50.820;4.548;2024-02-21T03:15:45;15.77;;;6.07;;
11582;SDS011;34299;50.820;4.548;2024-02-21T03:18:12;12.77;;;6.13;;
11582;SDS011;34299;50.820;4.548;2024-02-21T03:20:39;14.13;;;5.83;;
11582;SDS011;34299;50.820;4.548;2024-02-21T03:23:06;8.90;;;4.93;;
11582;SDS011;34299;50.820;4.548;2024-02-21T03:25:33;11.83;;;6.07;;
11582;SDS011;34299;50.820;4.548;2024-02-21T03:28:00;12.30;;;6.07;;
11582;SDS011;34299;50.820;4.548;2024-02-21T03:30:27;13.27;;;5.50;;
11582;SDS011;34299;50.820;4.548;2024-02-21T03:32:55;13.17;;;6.80;;
11582;SDS011;34299;50.820;4.548;2024-02-21T03:35:22;10.63;;;6.10;;
11582;SDS011;34299;50.820;4.548;2024-02-21T03:37:51;10.87;;;6.67;;
11582;SDS011;34299;50.820;4.548;2024-02-21T03:40:18;15.20;;;6.33;;
11582;SDS011;34299;50.820;4.548;2024-02-21T03:42:45;14.03;;;5.73;;
11582;SDS011;34299;50.820;4.548;2024-02-21T03:45:12;13.27;;;6.90;;
11582;SDS011;34299;50.820;4.548;2024-02-21T03:47:39;15.30;;;6.23;;
11582;SDS011;34299;50.820;4.548;2024-02-21T03:50:08;14.67;;;6.07;;
11582;SDS011;34299;50.820;4.548;2024-02-21T03:52:35;12.33;;;5.37;;
11582;SDS011;34299;50.820;4.548;2024-02-21T03:55:02;13.20;;;8.00;;
11582;SDS011;34299;50.820;4.548;2024-02-21T03:57:29;13.53;;;6.17;;
11582;SDS011;34299;50.820;4.548;2024-02-21T03:59:56;8.50;;;6.07;;
11582;SDS011;34299;50.820;4.548;2024-02-21T04:02:23;10.53;;;6.33;;
11582;SDS011;34299;50.820;4.548;2024-02-21T04:04:50;10.67;;;6.07;;
11582;SDS011;34299;50.820;4.548;2024-02-21T04:07:18;14.50;;;6.73;;
11582;SDS011;34299;50.820;4.548;2024-02-21T04:09:45;10.37;;;5.60;;
11582;SDS011;34299;50.820;4.548;2024-02-21T04:12:12;15.23;;;7.30;;
11582;SDS011;34299;50.820;4.548;2024-02-21T04:14:39;14.83;;;5.83;;
11582;SDS011;34299;50.820;4.548;2024-02-21T04:17:05;13.20;;;6.37;;
11582;SDS011;34299;50.820;4.548;2024-02-21T04:19:32;9.23;;;5.83;;
11582;SDS011;34299;50.820;4.548;2024-02-21T04:21:59;12.93;;;6.30;;
11582;SDS011;34299;50.820;4.548;2024-02-21T04:24:28;17.20;;;6.77;;
11582;SDS011;34299;50.820;4.548;2024-02-21T04:26:55;9.27;;;6.07;;
11582;SDS011;34299;50.820;4.548;2024-02-21T04:29:22;8.23;;;5.50;;
11582;SDS011;34299;50.820;4.548;2024-02-21T04:31:49;9.53;;;6.17;;
11582;SDS011;34299;50.820;4.548;2024-02-21T04:34:16;12.70;;;5.90;;
11582;SDS011;34299;50.820;4.548;2024-02-21T04:36:42;15.03;;;5.87;;
11582;SDS011;34299;50.820;4.548;2024-02-21T04:39:09;11.70;;;5.93;;
11582;SDS011;34299;50.820;4.548;2024-02-21T04:41:38;11.00;;;6.40;;
11582;SDS011;34299;50.820;4.548;2024-02-21T04:44:05;14.40;;;7.13;;
11582;SDS011;34299;50.820;4.548;2024-02-21T04:46:32;14.33;;;6.50;;
11582;SDS011;34299;50.820;4.548;2024-02-21T04:48:59;17.57;;;6.70;;
11582;SDS011;34299;50.820;4.548;2024-02-21T04:51:26;11.80;;;7.03;;
11582;SDS011;34299;50.820;4.548;2024-02-21T04:53:53;12.40;;;5.53;;
11582;SDS011;34299;50.820;4.548;2024-02-21T04:56:20;13.47;;;5.87;;
11582;SDS011;34299;50.820;4.548;2024-02-21T04:58:48;9.80;;;5.73;;
11582;SDS011;34299;50.820;4.548;2024-02-21T05:01:15;10.50;;;6.57;;
11582;SDS011;34299;50.820;4.548;2024-02-21T05:03:42;13.47;;;6.00;;
11582;SDS011;34299;50.820;4.548;2024-02-21T05:06:09;12.00;;;5.33;;
11582;SDS011;34299;50.820;4.548;2024-02-21T05:08:36;14.80;;;6.37;;
11582;SDS011;34299;50.820;4.548;2024-02-21T05:11:03;10.60;;;5.57;;
11582;SDS011;34299;50.820;4.548;2024-02-21T05:13:30;11.77;;;6.17;;
11582;SDS011;34299;50.820;4.548;2024-02-21T05:15:58;7.93;;;6.07;;
11582;SDS011;34299;50.820;4.548;2024-02-21T05:18:26;11.23;;;5.50;;
11582;SDS011;34299;50.820;4.548;2024-02-21T05:20:53;9.43;;;5.20;;
11582;SDS011;34299;50.820;4.548;2024-02-21T05:23:20;12.63;;;6.10;;
11582;SDS011;34299;50.820;4.548;2024-02-21T05:25:47;7.00;;;4.90;;
11582;SDS011;34299;50.820;4.548;2024-02-21T05:28:14;10.73;;;5.53;;
11582;SDS011;34299;50.820;4.548;2024-02-21T05:30:41;9.70;;;6.10;;
11582;SDS011;34299;50.820;4.548;2024-02-21T05:33:09;9.87;;;6.07;;
11582;SDS011;34299;50.820;4.548;2024-02-21T05:35:38;10.77;;;5.47;;
11582;SDS011;34299;50.820;4.548;2024-02-21T05:38:05;7.53;;;5.00;;
11582;SDS011;34299;50.820;4.548;2024-02-21T05:40:36;8.23;;;4.93;;
11582;SDS011;34299;50.820;4.548;2024-02-21T05:43:03;7.57;;;4.93;;
11582;SDS011;34299;50.820;4.548;2024-02-21T05:45:30;8.33;;;5.00;;
11582;SDS011;34299;50.820;4.548;2024-02-21T05:47:57;9.37;;;4.27;;
11582;SDS011;34299;50.820;4.548;2024-02-21T05:50:26;7.20;;;4.80;;
11582;SDS011;34299;50.820;4.548;2024-02-21T05:52:54;8.23;;;5.07;;
11582;SDS011;34299;50.820;4.548;2024-02-21T05:55:21;9.97;;;4.30;;
11582;SDS011;34299;50.820;4.548;2024-02-21T05:57:48;7.80;;;4.80;;
11582;SDS011;34299;50.820;4.548;2024-02-21T06:00:15;6.03;;;3.93;;
11582;SDS011;34299;50.820;4.548;2024-02-21T06:02:43;9.60;;;4.50;;
11582;SDS011;34299;50.820;4.548;2024-02-21T06:05:10;6.20;;;4.40;;
11582;SDS011;34299;50.820;4.548;2024-02-21T06:07:38;6.50;;;4.07;;
11582;SDS011;34299;50.820;4.548;2024-02-21T06:10:07;11.90;;;4.43;;
11582;SDS011;34299;50.820;4.548;2024-02-21T06:12:34;7.03;;;3.50;;
11582;SDS011;34299;50.820;4.548;2024-02-21T06:15:01;5.87;;;4.30;;
11582;SDS011;34299;50.820;4.548;2024-02-21T06:17:29;6.40;;;3.57;;
11582;SDS011;34299;50.820;4.548;2024-02-21T06:19:55;10.27;;;4.10;;
11582;SDS011;34299;50.820;4.548;2024-02-21T06:22:22;5.90;;;4.07;;
11582;SDS011;34299;50.820;4.548;2024-02-21T06:24:51;7.13;;;3.23;;
11582;SDS011;34299;50.820;4.548;2024-02-21T06:27:19;4.57;;;3.63;;
11582;SDS011;34299;50.820;4.548;2024-02-21T06:29:46;5.00;;;3.70;;
11582;SDS011;34299;50.820;4.548;2024-02-21T06:32:13;6.07;;;3.70;;
11582;SDS011;34299;50.820;4.548;2024-02-21T06:34:39;4.97;;;3.50;;
11582;SDS011;34299;50.820;4.548;2024-02-21T06:37:06;6.50;;;3.90;;
11582;SDS011;34299;50.820;4.548;2024-02-21T06:39:34;6.83;;;4.10;;
11582;SDS011;34299;50.820;4.548;2024-02-21T06:42:04;6.83;;;4.33;;
11582;SDS011;34299;50.820;4.548;2024-02-21T06:44:31;7.47;;;3.90;;
11582;SDS011;34299;50.820;4.548;2024-02-21T06:47:01;6.73;;;4.00;;
11582;SDS011;34299;50.820;4.548;2024-02-21T06:49:28;8.40;;;3.57;;
11582;SDS011;34299;50.820;4.548;2024-02-21T06:51:55;7.73;;;3.93;;
11582;SDS011;34299;50.820;4.548;2024-02-21T06:54:22;8.67;;;3.90;;
11582;SDS011;34299;50.820;4.548;2024-02-21T06:56:49;5.57;;;3.73;;
11582;SDS011;34299;50.820;4.548;2024-02-21T06:59:17;4.60;;;4.00;;
11582;SDS011;34299;50.820;4.548;2024-02-21T07:01:45;10.37;;;4.67;;
11582;SDS011;34299;50.820;4.548;2024-02-21T07:04:12;7.27;;;5.50;;
11582;SDS011;34299;50.820;4.548;2024-02-21T07:06:39;7.90;;;4.50;;
11582;SDS011;34299;50.820;4.548;2024-02-21T07:09:06;7.80;;;4.63;;
11582;SDS011;34299;50.820;4.548;2024-02-21T07:11:33;6.90;;;4.30;;
11582;SDS011;34299;50.820;4.548;2024-02-21T07:14:00;5.50;;;4.03;;
11582;SDS011;34299;50.820;4.548;2024-02-21T07:16:28;6.77;;;4.50;;
11582;SDS011;34299;50.820;4.548;2024-02-21T07:18:57;6.77;;;4.50;;
11582;SDS011;34299;50.820;4.548;2024-02-21T07:21:26;5.67;;;4.50;;
11582;SDS011;34299;50.820;4.548;2024-02-21T07:23:53;9.33;;;4.80;;
11582;SDS011;34299;50.820;4.548;2024-02-21T07:26:20;7.00;;;4.77;;
11582;SDS011;34299;50.820;4.548;2024-02-21T07:28:47;6.93;;;4.83;;
11582;SDS011;34299;50.820;4.548;2024-02-21T07:31:14;11.73;;;5.60;;
11582;SDS011;34299;50.820;4.548;2024-02-21T07:33:43;7.60;;;4.50;;
11582;SDS011;34299;50.820;4.548;2024-02-21T07:36:10;8.57;;;4.83;;
11582;SDS011;34299;50.820;4.548;2024-02-21T07:38:37;8.83;;;5.13;;
11582;SDS011;34299;50.820;4.548;2024-02-21T07:41:04;6.67;;;5.03;;
11582;SDS011;34299;50.820;4.548;2024-02-21T07:43:31;7.57;;;4.90;;
11582;SDS011;34299;50.820;4.548;2024-02-21T07:45:58;10.73;;;4.97;;
11582;SDS011;34299;50.820;4.548;2024-02-21T07:48:25;9.23;;;5.20;;
11582;SDS011;34299;50.820;4.548;2024-02-21T07:50:53;12.93;;;6.00;;
11582;SDS011;34299;50.820;4.548;2024-02-21T07:53:20;7.30;;;5.00;;
11582;SDS011;34299;50.820;4.548;2024-02-21T07:55:47;8.97;;;5.50;;
11582;SDS011;34299;50.820;4.548;2024-02-21T07:58:14;7.93;;;5.23;;
11582;SDS011;34299;50.820;4.548;2024-02-21T08:00:40;10.40;;;5.43;;
11582;SDS011;34299;50.820;4.548;2024-02-21T08:03:07;9.33;;;6.00;;
11582;SDS011;34299;50.820;4.548;2024-02-21T08:05:34;8.63;;;5.17;;
11582;SDS011;34299;50.820;4.548;2024-02-21T08:08:03;11.07;;;4.77;;
11582;SDS011;34299;50.820;4.548;2024-02-21T08:10:30;11.00;;;5.90;;
11582;SDS011;34299;50.820;4.548;2024-02-21T08:12:57;9.00;;;5.17;;
11582;SDS011;34299;50.820;4.548;2024-02-21T08:15:24;9.20;;;5.23;;
11582;SDS011;34299;50.820;4.548;2024-02-21T08:17:54;7.47;;;4.67;;
11582;SDS011;34299;50.820;4.548;2024-02-21T08:20:24;7.93;;;5.00;;
11582;SDS011;34299;50.820;4.548;2024-02-21T08:22:51;10.00;;;5.30;;
11582;SDS011;34299;50.820;4.548;2024-02-21T08:25:19;8.73;;;5.30;;
11582;SDS011;34299;50.820;4.548;2024-02-21T08:27:46;7.17;;;4.97;;
11582;SDS011;34299;50.820;4.548;2024-02-21T08:30:13;7.83;;;5.13;;
11582;SDS011;34299;50.820;4.548;2024-02-21T08:32:41;7.63;;;5.17;;
11582;SDS011;34299;50.820;4.548;2024-02-21T08:35:08;6.33;;;4.30;;
11582;SDS011;34299;50.820;4.548;2024-02-21T08:37:35;11.17;;;5.00;;
11582;SDS011;34299;50.820;4.548;2024-02-21T08:40:02;8.37;;;4.47;;
11582;SDS011;34299;50.820;4.548;2024-02-21T08:42:35;5.67;;;4.63;;
11582;SDS011;34299;50.820;4.548;2024-02-21T08:45:02;10.03;;;4.23;;
11582;SDS011;34299;50.820;4.548;2024-02-21T08:47:29;8.83;;;4.63;;
11582;SDS011;34299;50.820;4.548;2024-02-21T08:49:56;7.23;;;4.20;;
11582;SDS011;34299;50.820;4.548;2024-02-21T08:52:23;7.13;;;3.77;;
11582;SDS011;34299;50.820;4.548;2024-02-21T08:54:50;8.10;;;4.13;;
11582;SDS011;34299;50.820;4.548;2024-02-21T08:57:18;6.70;;;3.80;;
11582;SDS011;34299;50.820;4.548;2024-02-21T08:59:47;8.33;;;3.70;;
11582;SDS011;34299;50.820;4.548;2024-02-21T09:02:14;7.20;;;3.70;;
11582;SDS011;34299;50.820;4.548;2024-02-21T09:04:42;7.83;;;3.67;;
11582;SDS011;34299;50.820;4.548;2024-02-21T09:07:10;6.00;;;3.87;;
11582;SDS011;34299;50.820;4.548;2024-02-21T09:09:36;3.83;;;3.07;;
11582;SDS011;34299;50.820;4.548;2024-02-21T09:12:05;5.27;;;3.43;;
11582;SDS011;34299;50.820;4.548;2024-02-21T09:14:32;5.90;;;3.43;;
11582;SDS011;34299;50.820;4.548;2024-02-21T09:17:01;5.90;;;3.10;;
11582;SDS011;34299;50.820;4.548;2024-02-21T09:19:28;6.53;;;4.30;;
11582;SDS011;34299;50.820;4.548;2024-02-21T09:21:54;6.43;;;3.60;;
11582;SDS011;34299;50.820;4.548;2024-02-21T09:24:21;13.43;;;4.23;;
11582;SDS011;34299;50.820;4.548;2024-02-21T09:26:48;6.27;;;3.83;;
11582;SDS011;34299;50.820;4.548;2024-02-21T09:29:15;6.77;;;4.00;;
11582;SDS011;34299;50.820;4.548;2024-02-21T09:31:42;7.27;;;3.60;;
11582;SDS011;34299;50.820;4.548;2024-02-21T09:34:12;4.63;;;3.53;;
11582;SDS011;34299;50.820;4.548;2024-02-21T09:36:39;7.03;;;3.60;;
11582;SDS011;34299;50.820;4.548;2024-02-21T09:39:06;10.67;;;3.93;;
11582;SDS011;34299;50.820;4.548;2024-02-21T09:41:33;5.87;;;3.40;;
11582;SDS011;34299;50.820;4.548;2024-02-21T09:44:05;8.17;;;3.37;;
11582;SDS011;34299;50.820;4.548;2024-02-21T09:46:36;6.90;;;3.50;;
11582;SDS011;34299;50.820;4.548;2024-02-21T09:49:10;6.93;;;2.80;;
11582;SDS011;34299;50.820;4.548;2024-02-21T09:51:48;5.77;;;3.70;;
11582;SDS011;34299;50.820;4.548;2024-02-21T09:54:36;3.83;;;2.83;;
11582;SDS011;34299;50.820;4.548;2024-02-21T09:57:04;6.07;;;3.17;;
11582;SDS011;34299;50.820;4.548;2024-02-21T09:59:32;5.97;;;3.40;;
11582;SDS011;34299;50.820;4.548;2024-02-21T10:01:59;6.00;;;3.60;;
11582;SDS011;34299;50.820;4.548;2024-02-21T10:04:29;7.33;;;3.00;;
11582;SDS011;34299;50.820;4.548;2024-02-21T10:06:57;7.20;;;3.43;;
11582;SDS011;34299;50.820;4.548;2024-02-21T10:09:24;6.50;;;3.13;;
11582;SDS011;34299;50.820;4.548;2024-02-21T10:11:53;3.93;;;3.20;;
11582;SDS011;34299;50.820;4.548;2024-02-21T10:14:20;6.27;;;3.57;;
11582;SDS011;34299;50.820;4.548;2024-02-21T10:16:47;6.10;;;2.60;;
11582;SDS011;34299;50.820;4.548;2024-02-21T10:19:22;6.17;;;3.27;;
11582;SDS011;34299;50.820;4.548;2024-02-21T10:24:33;5.90;;;2.93;;
11582;SDS011;34299;50.820;4.548;2024-02-21T10:27:03;7.80;;;3.13;;
11582;SDS011;34299;50.820;4.548;2024-02-21T10:29:33;9.40;;;3.70;;
11582;SDS011;34299;50.820;4.548;2024-02-21T10:32:04;5.03;;;3.50;;
11582;SDS011;34299;50.820;4.548;2024-02-21T10:34:32;6.03;;;3.27;;
11582;SDS011;34299;50.820;4.548;2024-02-21T10:37:00;6.60;;;4.03;;
11582;SDS011;34299;50.820;4.548;2024-02-21T10:39:29;5.33;;;3.17;;
11582;SDS011;34299;50.820;4.548;2024-02-21T10:41:59;6.37;;;3.03;;
11582;SDS011;34299;50.820;4.548;2024-02-21T10:44:29;7.03;;;3.47;;
11582;SDS011;34299;50.820;4.548;2024-02-21T10:46:57;6.27;;;2.90;;
11582;SDS011;34299;50.820;4.548;2024-02-21T10:49:25;4.50;;;2.93;;
11582;SDS011;34299;50.820;4.548;2024-02-21T10:51:54;7.83;;;2.80;;
11582;SDS011;34299;50.820;4.548;2024-02-21T10:54:39;10.47;;;3.00;;
11582;SDS011;34299;50.820;4.548;2024-02-21T10:57:12;5.90;;;3.10;;
11582;SDS011;34299;50.820;4.548;2024-02-21T10:59:40;5.57;;;3.30;;
11582;SDS011;34299;50.820;4.548;2024-02-21T11:02:07;4.97;;;2.90;;
11582;SDS011;34299;50.820;4.548;2024-02-21T11:04:34;4.53;;;2.57;;
11582;SDS011;34299;50.820;4.548;2024-02-21T11:07:02;5.87;;;2.73;;
11582;SDS011;34299;50.820;4.548;2024-02-21T11:09:32;6.77;;;2.70;;
11582;SDS011;34299;50.820;4.548;2024-02-21T11:12:01;9.23;;;3.13;;
11582;SDS011;34299;50.820;4.548;2024-02-21T11:14:30;5.47;;;2.57;;
11582;SDS011;34299;50.820;4.548;2024-02-21T11:17:00;3.37;;;2.60;;
11582;SDS011;34299;50.820;4.548;2024-02-21T11:19:28;6.50;;;2.40;;
11582;SDS011;34299;50.820;4.548;2024-02-21T11:21:56;4.53;;;2.53;;
11582;SDS011;34299;50.820;4.548;2024-02-21T11:24:26;4.13;;;2.57;;
11582;SDS011;34299;50.820;4.548;2024-02-21T11:26:56;6.70;;;2.27;;
11582;SDS011;34299;50.820;4.548;2024-02-21T11:29:23;3.40;;;2.37;;
11582;SDS011;34299;50.820;4.548;2024-02-21T11:31:50;5.80;;;2.57;;
11582;SDS011;34299;50.820;4.548;2024-02-21T11:34:18;4.57;;;2.00;;
11582;SDS011;34299;50.820;4.548;2024-02-21T11:36:46;6.93;;;2.13;;
11582;SDS011;34299;50.820;4.548;2024-02-21T11:39:18;3.87;;;1.63;;
11582;SDS011;34299;50.820;4.548;2024-02-21T11:41:46;4.90;;;2.37;;
11582;SDS011;34299;50.820;4.548;2024-02-21T11:44:15;4.40;;;2.10;;
11582;SDS011;34299;50.820;4.548;2024-02-21T11:46:42;2.53;;;2.33;;
11582;SDS011;34299;50.820;4.548;2024-02-21T11:49:09;3.27;;;1.90;;
11582;SDS011;34299;50.820;4.548;2024-02-21T11:51:36;4.53;;;2.00;;
11582;SDS011;34299;50.820;4.548;2024-02-21T11:54:03;4.40;;;2.03;;
11582;SDS011;34299;50.820;4.548;2024-02-21T11:56:32;3.03;;;2.13;;
11582;SDS011;34299;50.820;4.548;2024-02-21T11:58:59;5.50;;;2.03;;
11582;SDS011;34299;50.820;4.548;2024-02-21T12:01:27;4.07;;;2.37;;
11582;SDS011;34299;50.820;4.548;2024-02-21T12:03:55;4.97;;;2.33;;
11582;SDS011;34299;50.820;4.548;2024-02-21T12:06:22;3.67;;;2.40;;
11582;SDS011;34299;50.820;4.548;2024-02-21T12:08:49;3.03;;;2.37;;
11582;SDS011;34299;50.820;4.548;2024-02-21T12:11:19;4.30;;;2.47;;
11582;SDS011;34299;50.820;4.548;2024-02-21T12:13:47;3.40;;;1.70;;
11582;SDS011;34299;50.820;4.548;2024-02-21T12:16:24;3.20;;;2.63;;
11582;SDS011;34299;50.820;4.548;2024-02-21T12:18:53;4.40;;;2.20;;
11582;SDS011;34299;50.820;4.548;2024-02-21T12:21:23;4.53;;;2.33;;
11582;SDS011;34299;50.820;4.548;2024-02-21T12:23:50;4.47;;;2.20;;
11582;SDS011;34299;50.820;4.548;2024-02-21T12:26:17;4.63;;;2.90;;
11582;SDS011;34299;50.820;4.548;2024-02-21T12:28:44;10.97;;;4.63;;
11582;SDS011;34299;50.820;4.548;2024-02-21T12:31:11;6.23;;;2.93;;
11582;SDS011;34299;50.820;4.548;2024-02-21T12:33:38;3.57;;;2.03;;
11582;SDS011;34299;50.820;4.548;2024-02-21T12:36:07;6.37;;;2.83;;
11582;SDS011;34299;50.820;4.548;2024-02-21T12:38:34;4.83;;;2.00;;
11582;SDS011;34299;50.820;4.548;2024-02-21T12:41:01;3.17;;;2.30;;
11582;SDS011;34299;50.820;4.548;2024-02-21T12:43:28;4.77;;;2.40;;
11582;SDS011;34299;50.820;4.548;2024-02-21T12:45:55;2.63;;;2.03;;
11582;SDS011;34299;50.820;4.548;2024-02-21T12:48:22;3.53;;;2.17;;
11582;SDS011;34299;50.820;4.548;2024-02-21T12:50:49;5.87;;;2.87;;
11582;SDS011;34299;50.820;4.548;2024-02-21T12:53:18;6.90;;;3.77;;
11582;SDS011;34299;50.820;4.548;2024-02-21T12:55:48;4.50;;;3.17;;
11582;SDS011;34299;50.820;4.548;2024-02-21T12:58:15;4.13;;;2.37;;
11582;SDS011;34299;50.820;4.548;2024-02-21T13:00:42;3.63;;;2.40;;
11582;SDS011;34299;50.820;4.548;2024-02-21T13:03:09;4.53;;;2.23;;
11582;SDS011;34299;50.820;4.548;2024-02-21T13:05:37;9.07;;;2.97;;
11582;SDS011;34299;50.820;4.548;2024-02-21T13:08:04;4.93;;;2.67;;
11582;SDS011;34299;50.820;4.548;2024-02-21T13:10:33;3.43;;;2.13;;
11582;SDS011;34299;50.820;4.548;2024-02-21T13:13:00;4.83;;;2.50;;
11582;SDS011;34299;50.820;4.548;2024-02-21T13:15:27;4.43;;;2.67;;
11582;SDS011;34299;50.820;4.548;2024-02-21T13:17:55;6.47;;;2.40;;
11582;SDS011;34299;50.820;4.548;2024-02-21T13:20:23;3.43;;;3.00;;
11582;SDS011;34299;50.820;4.548;2024-02-21T13:22:50;4.30;;;2.50;;
11582;SDS011;34299;50.820;4.548;2024-02-21T13:25:17;6.57;;;3.00;;
11582;SDS011;34299;50.820;4.548;2024-02-21T13:27:47;5.13;;;3.10;;
11582;SDS011;34299;50.820;4.548;2024-02-21T13:30:14;2.57;;;2.37;;
11582;SDS011;34299;50.820;4.548;2024-02-21T13:32:42;6.73;;;2.80;;
11582;SDS011;34299;50.820;4.548;2024-02-21T13:35:11;5.73;;;2.87;;
11582;SDS011;34299;50.820;4.548;2024-02-21T13:37:38;5.20;;;3.03;;
11582;SDS011;34299;50.820;4.548;2024-02-21T13:40:06;4.20;;;2.33;;
11582;SDS011;34299;50.820;4.548;2024-02-21T13:42:35;3.47;;;2.77;;
11582;SDS011;34299;50.820;4.548;2024-02-21T13:45:04;6.93;;;3.00;;
11582;SDS011;34299;50.820;4.548;2024-02-21T13:47:31;5.00;;;2.60;;
11582;SDS011;34299;50.820;4.548;2024-02-21T13:49:59;7.23;;;2.70;;
11582;SDS011;34299;50.820;4.548;2024-02-21T13:52:25;4.60;;;2.50;;
11582;SDS011;34299;50.820;4.548;2024-02-21T13:54:52;4.80;;;2.60;;
11582;SDS011;34299;50.820;4.548;2024-02-21T13:57:19;2.60;;;2.33;;
11582;SDS011;34299;50.820;4.548;2024-02-21T13:59:46;4.77;;;2.73;;
11582;SDS011;34299;50.820;4.548;2024-02-21T14:02:15;4.33;;;2.83;;
11582;SDS011;34299;50.820;4.548;2024-02-21T14:04:41;6.03;;;2.63;;
11582;SDS011;34299;50.820;4.548;2024-02-21T14:07:08;5.90;;;2.87;;
11582;SDS011;34299;50.820;4.548;2024-02-21T14:09:35;4.37;;;2.60;;
11582;SDS011;34299;50.820;4.548;2024-02-21T14:12:02;4.80;;;2.77;;
11582;SDS011;34299;50.820;4.548;2024-02-21T14:14:33;7.10;;;3.63;;
11582;SDS011;34299;50.820;4.548;2024-02-21T14:17:00;7.40;;;2.83;;
11582;SDS011;34299;50.820;4.548;2024-02-21T14:19:30;3.73;;;2.57;;
11582;SDS011;34299;50.820;4.548;2024-02-21T14:21:57;4.90;;;2.27;;
11582;SDS011;34299;50.820;4.548;2024-02-21T14:24:24;3.73;;;2.93;;
11582;SDS011;34299;50.820;4.548;2024-02-21T14:26:52;6.03;;;3.13;;
11582;SDS011;34299;50.820;4.548;2024-02-21T14:29:19;5.03;;;2.90;;
11582;SDS011;34299;50.820;4.548;2024-02-21T14:31:47;5.63;;;2.70;;
11582;SDS011;34299;50.820;4.548;2024-02-21T14:34:14;6.60;;;3.30;;
11582;SDS011;34299;50.820;4.548;2024-02-21T14:36:42;3.23;;;2.60;;
11582;SDS011;34299;50.820;4.548;2024-02-21T14:39:09;4.27;;;2.80;;
11582;SDS011;34299;50.820;4.548;2024-02-21T14:41:36;4.57;;;2.83;;
11582;SDS011;34299;50.820;4.548;2024-02-21T14:44:04;7.53;;;3.17;;
11582;SDS011;34299;50.820;4.548;2024-02-21T14:46:34;5.80;;;3.17;;
11582;SDS011;34299;50.820;4.548;2024-02-21T14:49:04;6.40;;;3.40;;